sensor_id;sensor_type;location;lat;lon;timestamp;P1;durP1;ratioP1;P2;durP2;ratioP2
42364;SDS011;28498;54.400;18.566;2022-07-29T00:02:26;5.57;;;3.35;;
42364;SDS011;28498;54.400;18.566;2022-07-29T00:04:53;5.95;;;3.50;;
42364;SDS011;28498;54.400;18.566;2022-07-29T00:07:20;7.60;;;3.28;;
42364;SDS011;28498;54.400;18.566;2022-07-29T00:09:47;5.80;;;2.85;;
42364;SDS011;28498;54.400;18.566;2022-07-29T00:12:18;7.05;;;3.45;;
42364;SDS011;28498;54.400;18.566;2022-07-29T00:14:54;7.65;;;2.95;;
42364;SDS011;28498;54.400;18.566;2022-07-29T00:17:22;5.80;;;3.15;;
42364;SDS011;28498;54.400;18.566;2022-07-29T00:19:50;6.80;;;3.58;;
42364;SDS011;28498;54.400;18.566;2022-07-29T00:22:17;8.80;;;3.40;;
42364;SDS011;28498;54.400;18.566;2022-07-29T00:24:44;6.63;;;3.80;;
42364;SDS011;28498;54.400;18.566;2022-07-29T00:27:10;6.20;;;3.67;;
42364;SDS011;28498;54.400;18.566;2022-07-29T00:29:37;6.57;;;3.45;;
42364;SDS011;28498;54.400;18.566;2022-07-29T00:32:05;7.25;;;4.05;;
42364;SDS011;28498;54.400;18.566;2022-07-29T00:34:32;6.68;;;3.47;;
42364;SDS011;28498;54.400;18.566;2022-07-29T00:37:17;9.40;;;3.20;;
42364;SDS011;28498;54.400;18.566;2022-07-29T00:39:44;8.77;;;3.65;;
42364;SDS011;28498;54.400;18.566;2022-07-29T00:42:11;6.63;;;3.55;;
42364;SDS011;28498;54.400;18.566;2022-07-29T00:44:38;9.75;;;3.55;;
42364;SDS011;28498;54.400;18.566;2022-07-29T00:47:07;6.28;;;3.88;;
42364;SDS011;28498;54.400;18.566;2022-07-29T00:49:34;6.55;;;3.60;;
42364;SDS011;28498;54.400;18.566;2022-07-29T00:52:03;7.60;;;3.60;;
42364;SDS011;28498;54.400;18.566;2022-07-29T00:54:32;6.68;;;3.90;;
42364;SDS011;28498;54.400;18.566;2022-07-29T00:56:59;6.55;;;3.90;;
42364;SDS011;28498;54.400;18.566;2022-07-29T00:59:27;6.65;;;4.10;;
42364;SDS011;28498;54.400;18.566;2022-07-29T01:02:01;9.40;;;3.73;;
42364;SDS011;28498;54.400;18.566;2022-07-29T01:04:29;9.70;;;3.80;;
42364;SDS011;28498;54.400;18.566;2022-07-29T01:06:57;7.78;;;3.85;;
42364;SDS011;28498;54.400;18.566;2022-07-29T01:09:26;5.90;;;3.50;;
42364;SDS011;28498;54.400;18.566;2022-07-29T01:12:19;6.70;;;3.45;;
42364;SDS011;28498;54.400;18.566;2022-07-29T01:14:50;8.02;;;3.72;;
42364;SDS011;28498;54.400;18.566;2022-07-29T01:17:31;8.45;;;3.67;;
42364;SDS011;28498;54.400;18.566;2022-07-29T01:30:43;7.80;;;3.95;;
42364;SDS011;28498;54.400;18.566;2022-07-29T01:33:13;10.70;;;4.30;;
42364;SDS011;28498;54.400;18.566;2022-07-29T01:36:05;11.98;;;3.90;;
42364;SDS011;28498;54.400;18.566;2022-07-29T01:38:37;6.75;;;4.72;;
42364;SDS011;28498;54.400;18.566;2022-07-29T01:41:17;6.78;;;4.20;;
42364;SDS011;28498;54.400;18.566;2022-07-29T01:43:50;7.07;;;4.40;;
42364;SDS011;28498;54.400;18.566;2022-07-29T01:46:28;8.27;;;4.82;;
42364;SDS011;28498;54.400;18.566;2022-07-29T01:49:07;9.52;;;4.03;;
42364;SDS011;28498;54.400;18.566;2022-07-29T01:51:46;12.48;;;5.18;;
42364;SDS011;28498;54.400;18.566;2022-07-29T01:56:51;6.88;;;3.78;;
42364;SDS011;28498;54.400;18.566;2022-07-29T01:59:21;7.45;;;4.35;;
42364;SDS011;28498;54.400;18.566;2022-07-29T02:01:52;7.75;;;4.90;;
42364;SDS011;28498;54.400;18.566;2022-07-29T02:04:20;8.07;;;3.80;;
42364;SDS011;28498;54.400;18.566;2022-07-29T02:06:56;7.93;;;4.38;;
42364;SDS011;28498;54.400;18.566;2022-07-29T02:09:27;7.90;;;4.05;;
42364;SDS011;28498;54.400;18.566;2022-07-29T02:11:55;9.88;;;5.68;;
42364;SDS011;28498;54.400;18.566;2022-07-29T02:14:23;8.23;;;3.92;;
42364;SDS011;28498;54.400;18.566;2022-07-29T02:16:54;7.15;;;4.35;;
42364;SDS011;28498;54.400;18.566;2022-07-29T02:19:24;9.60;;;4.40;;
42364;SDS011;28498;54.400;18.566;2022-07-29T02:21:53;10.23;;;4.10;;
42364;SDS011;28498;54.400;18.566;2022-07-29T02:24:23;7.95;;;4.40;;
42364;SDS011;28498;54.400;18.566;2022-07-29T02:26:52;9.25;;;4.10;;
42364;SDS011;28498;54.400;18.566;2022-07-29T02:29:22;11.45;;;4.32;;
42364;SDS011;28498;54.400;18.566;2022-07-29T02:31:51;6.40;;;4.38;;
42364;SDS011;28498;54.400;18.566;2022-07-29T02:34:19;8.00;;;4.38;;
42364;SDS011;28498;54.400;18.566;2022-07-29T02:36:47;6.75;;;4.25;;
42364;SDS011;28498;54.400;18.566;2022-07-29T02:39:15;7.07;;;4.15;;
42364;SDS011;28498;54.400;18.566;2022-07-29T02:41:45;6.93;;;4.63;;
42364;SDS011;28498;54.400;18.566;2022-07-29T02:44:16;7.03;;;4.18;;
42364;SDS011;28498;54.400;18.566;2022-07-29T02:47:09;7.88;;;4.35;;
42364;SDS011;28498;54.400;18.566;2022-07-29T02:49:53;7.22;;;4.15;;
42364;SDS011;28498;54.400;18.566;2022-07-29T02:52:35;10.27;;;4.18;;
42364;SDS011;28498;54.400;18.566;2022-07-29T02:57:43;11.70;;;4.85;;
42364;SDS011;28498;54.400;18.566;2022-07-29T03:00:20;8.25;;;4.50;;
42364;SDS011;28498;54.400;18.566;2022-07-29T03:02:50;9.57;;;4.53;;
42364;SDS011;28498;54.400;18.566;2022-07-29T03:05:20;9.05;;;4.30;;
42364;SDS011;28498;54.400;18.566;2022-07-29T03:07:50;10.05;;;4.82;;
42364;SDS011;28498;54.400;18.566;2022-07-29T03:10:27;8.93;;;4.60;;
42364;SDS011;28498;54.400;18.566;2022-07-29T03:12:55;8.88;;;4.30;;
42364;SDS011;28498;54.400;18.566;2022-07-29T03:15:24;8.20;;;4.45;;
42364;SDS011;28498;54.400;18.566;2022-07-29T03:17:52;6.90;;;4.07;;
42364;SDS011;28498;54.400;18.566;2022-07-29T03:20:20;6.38;;;3.90;;
42364;SDS011;28498;54.400;18.566;2022-07-29T03:22:48;9.02;;;4.20;;
42364;SDS011;28498;54.400;18.566;2022-07-29T03:25:15;8.82;;;5.35;;
42364;SDS011;28498;54.400;18.566;2022-07-29T03:27:45;8.70;;;4.43;;
42364;SDS011;28498;54.400;18.566;2022-07-29T03:30:13;7.88;;;4.47;;
42364;SDS011;28498;54.400;18.566;2022-07-29T03:32:47;7.15;;;4.32;;
42364;SDS011;28498;54.400;18.566;2022-07-29T03:35:17;8.52;;;4.45;;
42364;SDS011;28498;54.400;18.566;2022-07-29T03:37:47;7.72;;;3.83;;
42364;SDS011;28498;54.400;18.566;2022-07-29T03:40:26;8.13;;;4.47;;
42364;SDS011;28498;54.400;18.566;2022-07-29T03:42:57;10.27;;;4.60;;
42364;SDS011;28498;54.400;18.566;2022-07-29T03:45:26;10.10;;;4.70;;
42364;SDS011;28498;54.400;18.566;2022-07-29T03:47:57;7.93;;;4.72;;
42364;SDS011;28498;54.400;18.566;2022-07-29T03:50:28;9.40;;;3.90;;
42364;SDS011;28498;54.400;18.566;2022-07-29T03:52:56;8.10;;;3.92;;
42364;SDS011;28498;54.400;18.566;2022-07-29T03:55:24;6.53;;;4.10;;
42364;SDS011;28498;54.400;18.566;2022-07-29T03:57:52;8.23;;;4.07;;
42364;SDS011;28498;54.400;18.566;2022-07-29T04:00:19;7.28;;;4.00;;
42364;SDS011;28498;54.400;18.566;2022-07-29T04:02:48;6.90;;;3.90;;
42364;SDS011;28498;54.400;18.566;2022-07-29T04:05:16;7.35;;;3.80;;
42364;SDS011;28498;54.400;18.566;2022-07-29T04:07:44;6.88;;;3.30;;
42364;SDS011;28498;54.400;18.566;2022-07-29T04:10:12;8.88;;;3.83;;
42364;SDS011;28498;54.400;18.566;2022-07-29T04:12:41;5.57;;;3.08;;
42364;SDS011;28498;54.400;18.566;2022-07-29T04:15:09;6.82;;;3.20;;
42364;SDS011;28498;54.400;18.566;2022-07-29T04:17:36;6.22;;;2.95;;
42364;SDS011;28498;54.400;18.566;2022-07-29T04:20:04;6.10;;;2.63;;
42364;SDS011;28498;54.400;18.566;2022-07-29T04:22:31;5.97;;;2.70;;
42364;SDS011;28498;54.400;18.566;2022-07-29T04:24:58;4.60;;;2.35;;
42364;SDS011;28498;54.400;18.566;2022-07-29T04:27:29;4.75;;;2.00;;
42364;SDS011;28498;54.400;18.566;2022-07-29T04:29:56;4.55;;;2.10;;
42364;SDS011;28498;54.400;18.566;2022-07-29T04:32:24;5.45;;;2.55;;
42364;SDS011;28498;54.400;18.566;2022-07-29T04:34:51;4.63;;;1.90;;
42364;SDS011;28498;54.400;18.566;2022-07-29T04:37:18;4.85;;;2.05;;
42364;SDS011;28498;54.400;18.566;2022-07-29T04:39:45;5.20;;;2.25;;
42364;SDS011;28498;54.400;18.566;2022-07-29T04:42:12;9.13;;;2.55;;
42364;SDS011;28498;54.400;18.566;2022-07-29T04:44:39;6.82;;;2.60;;
42364;SDS011;28498;54.400;18.566;2022-07-29T04:47:08;7.28;;;2.60;;
42364;SDS011;28498;54.400;18.566;2022-07-29T04:49:38;7.85;;;3.78;;
42364;SDS011;28498;54.400;18.566;2022-07-29T04:52:05;5.55;;;3.30;;
42364;SDS011;28498;54.400;18.566;2022-07-29T04:54:33;6.45;;;2.95;;
42364;SDS011;28498;54.400;18.566;2022-07-29T04:57:00;5.43;;;3.75;;
42364;SDS011;28498;54.400;18.566;2022-07-29T04:59:26;7.28;;;4.05;;
42364;SDS011;28498;54.400;18.566;2022-07-29T05:01:53;7.47;;;3.20;;
42364;SDS011;28498;54.400;18.566;2022-07-29T05:04:21;5.35;;;3.13;;
42364;SDS011;28498;54.400;18.566;2022-07-29T05:06:47;6.80;;;3.55;;
42364;SDS011;28498;54.400;18.566;2022-07-29T05:09:14;7.75;;;3.00;;
42364;SDS011;28498;54.400;18.566;2022-07-29T05:11:41;6.53;;;3.10;;
42364;SDS011;28498;54.400;18.566;2022-07-29T05:14:08;6.80;;;3.08;;
42364;SDS011;28498;54.400;18.566;2022-07-29T05:16:35;7.78;;;2.88;;
42364;SDS011;28498;54.400;18.566;2022-07-29T05:19:02;6.82;;;2.85;;
42364;SDS011;28498;54.400;18.566;2022-07-29T05:21:29;4.70;;;2.72;;
42364;SDS011;28498;54.400;18.566;2022-07-29T05:23:56;5.65;;;2.40;;
42364;SDS011;28498;54.400;18.566;2022-07-29T05:26:23;6.22;;;2.70;;
42364;SDS011;28498;54.400;18.566;2022-07-29T05:28:50;5.10;;;2.25;;
42364;SDS011;28498;54.400;18.566;2022-07-29T05:31:16;6.75;;;2.80;;
42364;SDS011;28498;54.400;18.566;2022-07-29T05:33:44;4.30;;;2.40;;
42364;SDS011;28498;54.400;18.566;2022-07-29T05:36:10;5.25;;;2.20;;
42364;SDS011;28498;54.400;18.566;2022-07-29T05:38:38;5.55;;;2.45;;
42364;SDS011;28498;54.400;18.566;2022-07-29T05:41:04;6.70;;;1.92;;
42364;SDS011;28498;54.400;18.566;2022-07-29T05:43:31;5.20;;;1.80;;
42364;SDS011;28498;54.400;18.566;2022-07-29T05:45:58;8.45;;;2.10;;
42364;SDS011;28498;54.400;18.566;2022-07-29T05:48:25;5.75;;;1.60;;
42364;SDS011;28498;54.400;18.566;2022-07-29T05:50:52;3.42;;;1.50;;
42364;SDS011;28498;54.400;18.566;2022-07-29T05:53:19;4.75;;;1.65;;
42364;SDS011;28498;54.400;18.566;2022-07-29T05:55:47;3.03;;;1.27;;
42364;SDS011;28498;54.400;18.566;2022-07-29T05:58:14;6.43;;;1.63;;
42364;SDS011;28498;54.400;18.566;2022-07-29T06:00:41;4.90;;;1.63;;
42364;SDS011;28498;54.400;18.566;2022-07-29T06:03:08;3.78;;;1.40;;
42364;SDS011;28498;54.400;18.566;2022-07-29T06:05:35;4.53;;;1.70;;
42364;SDS011;28498;54.400;18.566;2022-07-29T06:08:02;3.72;;;1.40;;
42364;SDS011;28498;54.400;18.566;2022-07-29T06:10:32;3.10;;;1.17;;
42364;SDS011;28498;54.400;18.566;2022-07-29T06:13:00;2.97;;;1.00;;
42364;SDS011;28498;54.400;18.566;2022-07-29T06:15:27;3.55;;;1.20;;
42364;SDS011;28498;54.400;18.566;2022-07-29T06:17:54;3.42;;;1.05;;
42364;SDS011;28498;54.400;18.566;2022-07-29T06:20:30;2.33;;;0.80;;
42364;SDS011;28498;54.400;18.566;2022-07-29T06:22:58;2.72;;;0.80;;
42364;SDS011;28498;54.400;18.566;2022-07-29T06:25:26;2.05;;;0.75;;
42364;SDS011;28498;54.400;18.566;2022-07-29T06:27:56;4.63;;;0.80;;
42364;SDS011;28498;54.400;18.566;2022-07-29T06:30:24;2.22;;;0.88;;
42364;SDS011;28498;54.400;18.566;2022-07-29T06:32:51;5.38;;;0.90;;
42364;SDS011;28498;54.400;18.566;2022-07-29T06:35:18;5.30;;;1.05;;
42364;SDS011;28498;54.400;18.566;2022-07-29T06:41:53;3.40;;;0.90;;
42364;SDS011;28498;54.400;18.566;2022-07-29T06:44:20;1.88;;;0.80;;
42364;SDS011;28498;54.400;18.566;2022-07-29T06:46:47;2.63;;;0.93;;
42364;SDS011;28498;54.400;18.566;2022-07-29T06:49:16;1.55;;;0.70;;
42364;SDS011;28498;54.400;18.566;2022-07-29T06:51:43;2.58;;;0.88;;
42364;SDS011;28498;54.400;18.566;2022-07-29T06:54:10;2.65;;;0.95;;
42364;SDS011;28498;54.400;18.566;2022-07-29T06:56:37;1.80;;;0.70;;
42364;SDS011;28498;54.400;18.566;2022-07-29T06:59:06;3.13;;;1.00;;
42364;SDS011;28498;54.400;18.566;2022-07-29T07:01:38;2.55;;;1.00;;
42364;SDS011;28498;54.400;18.566;2022-07-29T07:04:06;2.47;;;1.02;;
42364;SDS011;28498;54.400;18.566;2022-07-29T07:06:35;4.20;;;0.93;;
42364;SDS011;28498;54.400;18.566;2022-07-29T07:09:02;3.28;;;0.90;;
42364;SDS011;28498;54.400;18.566;2022-07-29T07:11:30;3.58;;;1.00;;
42364;SDS011;28498;54.400;18.566;2022-07-29T07:13:57;3.38;;;0.93;;
42364;SDS011;28498;54.400;18.566;2022-07-29T07:16:28;3.08;;;0.98;;
42364;SDS011;28498;54.400;18.566;2022-07-29T07:18:55;2.45;;;0.88;;
42364;SDS011;28498;54.400;18.566;2022-07-29T07:21:23;2.50;;;0.90;;
42364;SDS011;28498;54.400;18.566;2022-07-29T07:23:50;2.97;;;0.70;;
42364;SDS011;28498;54.400;18.566;2022-07-29T07:26:17;2.53;;;0.90;;
42364;SDS011;28498;54.400;18.566;2022-07-29T07:28:44;4.72;;;1.27;;
42364;SDS011;28498;54.400;18.566;2022-07-29T07:31:11;3.50;;;1.10;;
42364;SDS011;28498;54.400;18.566;2022-07-29T07:33:38;3.22;;;1.08;;
42364;SDS011;28498;54.400;18.566;2022-07-29T07:36:05;4.88;;;1.00;;
42364;SDS011;28498;54.400;18.566;2022-07-29T07:38:32;3.70;;;0.80;;
42364;SDS011;28498;54.400;18.566;2022-07-29T07:41:00;5.05;;;1.00;;
42364;SDS011;28498;54.400;18.566;2022-07-29T07:43:27;7.18;;;1.33;;
42364;SDS011;28498;54.400;18.566;2022-07-29T07:45:54;5.13;;;1.50;;
42364;SDS011;28498;54.400;18.566;2022-07-29T07:48:21;4.57;;;1.15;;
42364;SDS011;28498;54.400;18.566;2022-07-29T07:50:48;4.75;;;1.17;;
42364;SDS011;28498;54.400;18.566;2022-07-29T07:53:15;5.10;;;1.45;;
42364;SDS011;28498;54.400;18.566;2022-07-29T07:55:42;5.25;;;1.70;;
42364;SDS011;28498;54.400;18.566;2022-07-29T07:58:30;2.67;;;1.00;;
42364;SDS011;28498;54.400;18.566;2022-07-29T08:00:57;3.53;;;1.10;;
42364;SDS011;28498;54.400;18.566;2022-07-29T08:03:24;5.07;;;1.20;;
42364;SDS011;28498;54.400;18.566;2022-07-29T08:05:51;2.30;;;0.80;;
42364;SDS011;28498;54.400;18.566;2022-07-29T08:08:18;3.25;;;0.95;;
42364;SDS011;28498;54.400;18.566;2022-07-29T08:10:45;3.28;;;0.98;;
42364;SDS011;28498;54.400;18.566;2022-07-29T08:13:22;2.37;;;0.80;;
42364;SDS011;28498;54.400;18.566;2022-07-29T08:15:51;2.80;;;0.88;;
42364;SDS011;28498;54.400;18.566;2022-07-29T08:18:25;2.00;;;0.70;;
42364;SDS011;28498;54.400;18.566;2022-07-29T08:20:57;2.60;;;0.70;;
42364;SDS011;28498;54.400;18.566;2022-07-29T08:23:24;1.92;;;0.75;;
42364;SDS011;28498;54.400;18.566;2022-07-29T08:26:12;3.78;;;0.70;;
42364;SDS011;28498;54.400;18.566;2022-07-29T08:28:40;2.00;;;0.70;;
42364;SDS011;28498;54.400;18.566;2022-07-29T08:31:11;3.80;;;0.75;;
42364;SDS011;28498;54.400;18.566;2022-07-29T08:33:39;1.70;;;0.60;;
42364;SDS011;28498;54.400;18.566;2022-07-29T08:36:06;1.90;;;0.82;;
42364;SDS011;28498;54.400;18.566;2022-07-29T08:38:33;3.08;;;0.82;;
42364;SDS011;28498;54.400;18.566;2022-07-29T08:41:00;2.97;;;1.17;;
42364;SDS011;28498;54.400;18.566;2022-07-29T08:43:28;2.75;;;1.00;;
42364;SDS011;28498;54.400;18.566;2022-07-29T08:45:55;3.58;;;0.85;;
42364;SDS011;28498;54.400;18.566;2022-07-29T08:48:22;3.10;;;0.80;;
42364;SDS011;28498;54.400;18.566;2022-07-29T08:50:52;4.20;;;1.00;;
42364;SDS011;28498;54.400;18.566;2022-07-29T08:53:21;2.85;;;1.48;;
42364;SDS011;28498;54.400;18.566;2022-07-29T08:55:52;2.13;;;0.65;;
42364;SDS011;28498;54.400;18.566;2022-07-29T08:58:19;3.97;;;0.85;;
42364;SDS011;28498;54.400;18.566;2022-07-29T09:00:51;4.40;;;0.88;;
42364;SDS011;28498;54.400;18.566;2022-07-29T09:03:22;2.05;;;0.70;;
42364;SDS011;28498;54.400;18.566;2022-07-29T09:05:50;1.75;;;0.80;;
42364;SDS011;28498;54.400;18.566;2022-07-29T09:08:18;4.43;;;1.00;;
42364;SDS011;28498;54.400;18.566;2022-07-29T09:10:46;1.75;;;0.80;;
42364;SDS011;28498;54.400;18.566;2022-07-29T09:13:14;2.30;;;0.70;;
42364;SDS011;28498;54.400;18.566;2022-07-29T09:15:41;1.33;;;0.60;;
42364;SDS011;28498;54.400;18.566;2022-07-29T09:18:08;3.03;;;0.85;;
42364;SDS011;28498;54.400;18.566;2022-07-29T09:20:55;2.13;;;0.77;;
42364;SDS011;28498;54.400;18.566;2022-07-29T09:23:40;1.58;;;0.60;;
42364;SDS011;28498;54.400;18.566;2022-07-29T09:26:09;3.38;;;0.70;;
42364;SDS011;28498;54.400;18.566;2022-07-29T09:28:35;1.23;;;0.55;;
42364;SDS011;28498;54.400;18.566;2022-07-29T09:31:08;2.42;;;0.70;;
42364;SDS011;28498;54.400;18.566;2022-07-29T09:33:35;2.45;;;0.52;;
42364;SDS011;28498;54.400;18.566;2022-07-29T09:36:06;2.30;;;0.70;;
42364;SDS011;28498;54.400;18.566;2022-07-29T09:38:35;1.98;;;0.50;;
42364;SDS011;28498;54.400;18.566;2022-07-29T09:41:04;2.35;;;0.50;;
42364;SDS011;28498;54.400;18.566;2022-07-29T09:43:32;2.08;;;0.60;;
42364;SDS011;28498;54.400;18.566;2022-07-29T09:46:10;2.25;;;0.88;;
42364;SDS011;28498;54.400;18.566;2022-07-29T09:48:41;2.17;;;0.60;;
42364;SDS011;28498;54.400;18.566;2022-07-29T09:51:20;3.17;;;0.60;;
42364;SDS011;28498;54.400;18.566;2022-07-29T09:56:49;1.65;;;0.70;;
42364;SDS011;28498;54.400;18.566;2022-07-29T09:59:16;3.03;;;0.70;;
42364;SDS011;28498;54.400;18.566;2022-07-29T10:01:43;2.83;;;0.80;;
42364;SDS011;28498;54.400;18.566;2022-07-29T10:04:10;2.60;;;0.60;;
42364;SDS011;28498;54.400;18.566;2022-07-29T10:07:00;2.35;;;0.63;;
42364;SDS011;28498;54.400;18.566;2022-07-29T10:09:30;1.65;;;0.57;;
42364;SDS011;28498;54.400;18.566;2022-07-29T10:12:05;1.23;;;0.52;;
42364;SDS011;28498;54.400;18.566;2022-07-29T10:14:42;4.72;;;0.90;;
42364;SDS011;28498;54.400;18.566;2022-07-29T10:17:09;2.63;;;0.70;;
42364;SDS011;28498;54.400;18.566;2022-07-29T10:19:37;1.35;;;0.70;;
42364;SDS011;28498;54.400;18.566;2022-07-29T10:22:06;2.55;;;0.65;;
42364;SDS011;28498;54.400;18.566;2022-07-29T10:24:35;2.22;;;0.82;;
42364;SDS011;28498;54.400;18.566;2022-07-29T10:27:04;2.00;;;0.70;;
42364;SDS011;28498;54.400;18.566;2022-07-29T10:29:32;1.80;;;0.60;;
42364;SDS011;28498;54.400;18.566;2022-07-29T10:35:12;2.38;;;0.55;;
42364;SDS011;28498;54.400;18.566;2022-07-29T10:40:36;0.93;;;0.40;;
42364;SDS011;28498;54.400;18.566;2022-07-29T10:43:45;1.13;;;0.50;;
42364;SDS011;28498;54.400;18.566;2022-07-29T10:46:17;0.88;;;0.38;;
42364;SDS011;28498;54.400;18.566;2022-07-29T10:49:04;2.10;;;0.70;;
42364;SDS011;28498;54.400;18.566;2022-07-29T10:54:19;0.80;;;0.40;;
42364;SDS011;28498;54.400;18.566;2022-07-29T11:02:42;1.33;;;0.40;;
42364;SDS011;28498;54.400;18.566;2022-07-29T11:08:16;2.05;;;0.50;;
42364;SDS011;28498;54.400;18.566;2022-07-29T11:10:51;1.10;;;0.50;;
42364;SDS011;28498;54.400;18.566;2022-07-29T11:13:46;1.83;;;0.50;;
42364;SDS011;28498;54.400;18.566;2022-07-29T11:16:18;1.35;;;0.52;;
42364;SDS011;28498;54.400;18.566;2022-07-29T11:21:43;1.40;;;0.50;;
42364;SDS011;28498;54.400;18.566;2022-07-29T11:24:24;0.80;;;0.40;;
42364;SDS011;28498;54.400;18.566;2022-07-29T11:27:08;2.25;;;0.50;;
42364;SDS011;28498;54.400;18.566;2022-07-29T11:29:39;1.73;;;0.60;;
42364;SDS011;28498;54.400;18.566;2022-07-29T11:32:15;1.35;;;0.50;;
42364;SDS011;28498;54.400;18.566;2022-07-29T11:34:49;2.38;;;0.60;;
42364;SDS011;28498;54.400;18.566;2022-07-29T11:38:26;1.27;;;0.50;;
42364;SDS011;28498;54.400;18.566;2022-07-29T11:43:53;1.40;;;0.60;;
42364;SDS011;28498;54.400;18.566;2022-07-29T11:47:07;5.70;;;0.70;;
42364;SDS011;28498;54.400;18.566;2022-07-29T11:49:34;0.98;;;0.40;;
42364;SDS011;28498;54.400;18.566;2022-07-29T11:52:01;2.05;;;0.68;;
42364;SDS011;28498;54.400;18.566;2022-07-29T11:54:30;0.75;;;0.40;;
42364;SDS011;28498;54.400;18.566;2022-07-29T11:57:19;3.30;;;0.60;;
42364;SDS011;28498;54.400;18.566;2022-07-29T11:59:47;5.65;;;0.93;;
42364;SDS011;28498;54.400;18.566;2022-07-29T12:02:14;17.25;;;3.53;;
42364;SDS011;28498;54.400;18.566;2022-07-29T12:05:02;1.60;;;0.50;;
42364;SDS011;28498;54.400;18.566;2022-07-29T12:07:36;2.83;;;0.60;;
42364;SDS011;28498;54.400;18.566;2022-07-29T12:10:04;2.15;;;0.60;;
42364;SDS011;28498;54.400;18.566;2022-07-29T12:12:37;1.33;;;0.47;;
42364;SDS011;28498;54.400;18.566;2022-07-29T12:15:11;2.10;;;0.57;;
42364;SDS011;28498;54.400;18.566;2022-07-29T12:17:40;1.92;;;0.40;;
42364;SDS011;28498;54.400;18.566;2022-07-29T12:20:08;1.58;;;0.50;;
42364;SDS011;28498;54.400;18.566;2022-07-29T12:22:38;2.50;;;0.77;;
42364;SDS011;28498;54.400;18.566;2022-07-29T12:25:09;1.08;;;0.50;;
42364;SDS011;28498;54.400;18.566;2022-07-29T12:28:02;1.00;;;0.40;;
42364;SDS011;28498;54.400;18.566;2022-07-29T12:39:29;1.17;;;0.45;;
42364;SDS011;28498;54.400;18.566;2022-07-29T12:41:57;2.30;;;0.60;;
42364;SDS011;28498;54.400;18.566;2022-07-29T12:44:46;5.10;;;1.65;;
42364;SDS011;28498;54.400;18.566;2022-07-29T12:47:14;1.17;;;0.50;;
42364;SDS011;28498;54.400;18.566;2022-07-29T12:49:42;2.13;;;0.73;;
42364;SDS011;28498;54.400;18.566;2022-07-29T12:54:55;1.35;;;0.75;;
42364;SDS011;28498;54.400;18.566;2022-07-29T12:57:22;9.25;;;1.05;;
42364;SDS011;28498;54.400;18.566;2022-07-29T13:00:00;3.13;;;0.90;;
42364;SDS011;28498;54.400;18.566;2022-07-29T13:02:27;2.03;;;0.50;;
42364;SDS011;28498;54.400;18.566;2022-07-29T13:04:55;0.90;;;0.40;;
42364;SDS011;28498;54.400;18.566;2022-07-29T13:07:29;1.60;;;0.50;;
42364;SDS011;28498;54.400;18.566;2022-07-29T13:10:19;1.40;;;0.50;;
42364;SDS011;28498;54.400;18.566;2022-07-29T13:15:34;0.95;;;0.40;;
42364;SDS011;28498;54.400;18.566;2022-07-29T13:18:29;1.88;;;0.47;;
42364;SDS011;28498;54.400;18.566;2022-07-29T13:21:20;3.40;;;0.60;;
42364;SDS011;28498;54.400;18.566;2022-07-29T13:23:45;1.73;;;0.82;;
42364;SDS011;28498;54.400;18.566;2022-07-29T13:26:12;1.40;;;0.60;;
42364;SDS011;28498;54.400;18.566;2022-07-29T13:28:39;1.27;;;0.50;;
42364;SDS011;28498;54.400;18.566;2022-07-29T13:31:09;1.33;;;0.55;;
42364;SDS011;28498;54.400;18.566;2022-07-29T13:33:37;2.25;;;0.68;;
42364;SDS011;28498;54.400;18.566;2022-07-29T13:36:03;2.80;;;0.60;;
42364;SDS011;28498;54.400;18.566;2022-07-29T13:38:31;1.80;;;0.60;;
42364;SDS011;28498;54.400;18.566;2022-07-29T13:40:58;2.28;;;0.50;;
42364;SDS011;28498;54.400;18.566;2022-07-29T13:43:25;1.50;;;0.75;;
42364;SDS011;28498;54.400;18.566;2022-07-29T13:49:33;3.20;;;0.70;;
42364;SDS011;28498;54.400;18.566;2022-07-29T13:52:01;4.28;;;0.93;;
42364;SDS011;28498;54.400;18.566;2022-07-29T13:54:28;3.25;;;0.70;;
42364;SDS011;28498;54.400;18.566;2022-07-29T13:56:55;1.02;;;0.43;;
42364;SDS011;28498;54.400;18.566;2022-07-29T13:59:22;1.70;;;0.60;;
42364;SDS011;28498;54.400;18.566;2022-07-29T14:01:49;1.05;;;0.50;;
42364;SDS011;28498;54.400;18.566;2022-07-29T14:04:16;1.92;;;0.52;;
42364;SDS011;28498;54.400;18.566;2022-07-29T14:06:43;6.78;;;0.80;;
42364;SDS011;28498;54.400;18.566;2022-07-29T14:09:09;1.23;;;0.55;;
42364;SDS011;28498;54.400;18.566;2022-07-29T14:11:36;3.42;;;0.90;;
42364;SDS011;28498;54.400;18.566;2022-07-29T14:14:04;1.35;;;0.50;;
42364;SDS011;28498;54.400;18.566;2022-07-29T14:16:31;2.47;;;0.45;;
42364;SDS011;28498;54.400;18.566;2022-07-29T14:18:59;1.58;;;0.43;;
42364;SDS011;28498;54.400;18.566;2022-07-29T14:21:26;2.40;;;0.82;;
42364;SDS011;28498;54.400;18.566;2022-07-29T14:23:53;1.45;;;0.50;;
42364;SDS011;28498;54.400;18.566;2022-07-29T14:26:21;2.85;;;0.50;;
42364;SDS011;28498;54.400;18.566;2022-07-29T14:28:49;2.72;;;0.45;;
42364;SDS011;28498;54.400;18.566;2022-07-29T14:31:16;1.33;;;0.40;;
42364;SDS011;28498;54.400;18.566;2022-07-29T14:33:43;2.05;;;0.68;;
42364;SDS011;28498;54.400;18.566;2022-07-29T14:36:14;0.90;;;0.40;;
42364;SDS011;28498;54.400;18.566;2022-07-29T14:38:41;1.63;;;0.50;;
42364;SDS011;28498;54.400;18.566;2022-07-29T14:41:08;1.52;;;0.40;;
42364;SDS011;28498;54.400;18.566;2022-07-29T14:43:35;2.65;;;0.60;;
42364;SDS011;28498;54.400;18.566;2022-07-29T14:46:02;2.05;;;0.50;;
42364;SDS011;28498;54.400;18.566;2022-07-29T14:48:33;1.55;;;0.40;;
42364;SDS011;28498;54.400;18.566;2022-07-29T14:51:01;2.03;;;0.60;;
42364;SDS011;28498;54.400;18.566;2022-07-29T14:53:30;1.35;;;0.40;;
42364;SDS011;28498;54.400;18.566;2022-07-29T14:55:57;1.48;;;0.50;;
42364;SDS011;28498;54.400;18.566;2022-07-29T14:58:44;1.15;;;0.50;;
42364;SDS011;28498;54.400;18.566;2022-07-29T15:01:17;1.95;;;0.60;;
42364;SDS011;28498;54.400;18.566;2022-07-29T15:03:44;1.50;;;0.50;;
42364;SDS011;28498;54.400;18.566;2022-07-29T15:06:11;1.63;;;0.60;;
42364;SDS011;28498;54.400;18.566;2022-07-29T15:08:37;1.58;;;0.60;;
42364;SDS011;28498;54.400;18.566;2022-07-29T15:11:04;1.08;;;0.40;;
42364;SDS011;28498;54.400;18.566;2022-07-29T15:13:32;1.27;;;0.40;;
42364;SDS011;28498;54.400;18.566;2022-07-29T15:16:00;0.88;;;0.32;;
42364;SDS011;28498;54.400;18.566;2022-07-29T15:18:27;1.67;;;0.45;;
42364;SDS011;28498;54.400;18.566;2022-07-29T15:20:54;2.15;;;0.50;;
42364;SDS011;28498;54.400;18.566;2022-07-29T15:23:21;1.40;;;0.40;;
42364;SDS011;28498;54.400;18.566;2022-07-29T15:25:48;1.75;;;0.50;;
42364;SDS011;28498;54.400;18.566;2022-07-29T15:28:15;1.45;;;0.50;;
42364;SDS011;28498;54.400;18.566;2022-07-29T15:30:41;1.38;;;0.50;;
42364;SDS011;28498;54.400;18.566;2022-07-29T15:33:09;2.15;;;0.63;;
42364;SDS011;28498;54.400;18.566;2022-07-29T15:35:36;1.27;;;0.40;;
42364;SDS011;28498;54.400;18.566;2022-07-29T15:38:06;1.35;;;0.45;;
42364;SDS011;28498;54.400;18.566;2022-07-29T15:40:33;1.95;;;0.40;;
42364;SDS011;28498;54.400;18.566;2022-07-29T15:43:02;1.27;;;0.50;;
42364;SDS011;28498;54.400;18.566;2022-07-29T15:45:35;1.25;;;0.55;;
42364;SDS011;28498;54.400;18.566;2022-07-29T15:50:34;0.95;;;0.40;;
42364;SDS011;28498;54.400;18.566;2022-07-29T15:53:01;1.33;;;0.60;;
42364;SDS011;28498;54.400;18.566;2022-07-29T15:55:28;1.35;;;0.50;;
42364;SDS011;28498;54.400;18.566;2022-07-29T15:57:55;1.88;;;0.60;;
42364;SDS011;28498;54.400;18.566;2022-07-29T16:00:25;2.38;;;0.40;;